Time;durP1;ratioP1;P1;durP2;ratioP2;P2;SDS_P1;SDS_P2;PMS_P1;PMS_P2;Temp;Humidity;BMP_temperature;BMP_pressure;BME280_temperature;BME280_humidity;BME280_pressure;Samples;Min_cycle;Max_cycle;Signal;HPM_P1;HPM_P2
2021/08/20 00:00:10;;;;;;;13.80;11.38;;;15.00;99.90;;;;;;4928666;29;20099;-95
2021/08/20 00:02:41;;;;;;;15.48;11.35;;;15.00;99.90;;;;;;4898200;29;20057;-92
2021/08/20 00:05:07;;;;;;;16.90;11.32;;;15.00;99.90;;;;;;4928450;29;20044;-92
2021/08/20 00:07:33;;;;;;;16.73;12.35;;;15.00;99.90;;;;;;4914081;29;20138;-93
2021/08/20 00:10:00;;;;;;;14.73;11.18;;;15.00;99.90;;;;;;4912888;29;20060;-93
2021/08/20 00:12:27;;;;;;;17.58;12.65;;;15.00;99.90;;;;;;4928542;29;20032;-95
2021/08/20 00:14:55;;;;;;;14.18;11.13;;;15.00;99.90;;;;;;4897385;29;20044;-93
2021/08/20 00:17:22;;;;;;;15.68;11.32;;;15.00;99.90;;;;;;4923683;29;20040;-94
2021/08/20 00:19:48;;;;;;;14.73;10.57;;;15.00;99.90;;;;;;4931649;29;20032;-93
2021/08/20 00:22:14;;;;;;;14.05;10.30;;;15.00;99.90;;;;;;4931384;29;20036;-93
2021/08/20 00:24:39;;;;;;;17.58;12.40;;;15.00;99.90;;;;;;4932333;29;20059;-94
2021/08/20 00:27:06;;;;;;;14.90;10.75;;;15.10;99.90;;;;;;4931057;29;20032;-95
2021/08/20 00:29:32;;;;;;;13.35;9.90;;;15.00;99.90;;;;;;4930743;29;20036;-92
2021/08/20 00:31:57;;;;;;;16.30;10.68;;;15.10;99.90;;;;;;4931141;29;20112;-95
2021/08/20 00:34:23;;;;;;;14.18;10.43;;;15.10;99.90;;;;;;4931100;29;20043;-94
2021/08/20 00:36:51;;;;;;;11.95;8.77;;;15.10;99.90;;;;;;4931176;29;20036;-94
2021/08/20 00:39:17;;;;;;;12.02;8.73;;;15.10;99.90;;;;;;4931123;29;20137;-94
2021/08/20 00:41:43;;;;;;;12.15;7.80;;;15.00;99.90;;;;;;4931205;29;20067;-93
2021/08/20 00:44:11;;;;;;;9.23;7.90;;;15.00;99.90;;;;;;4931129;29;20060;-94
2021/08/20 00:46:38;;;;;;;12.52;10.30;;;15.00;99.90;;;;;;4931030;29;20116;-94
2021/08/20 00:49:04;;;;;;;11.23;8.25;;;15.00;99.90;;;;;;4930916;29;20052;-94
2021/08/20 00:51:35;;;;;;;14.10;10.13;;;15.00;99.90;;;;;;4930899;29;20106;-94
2021/08/20 00:54:02;;;;;;;14.10;9.50;;;15.00;99.90;;;;;;4930556;29;20056;-94
2021/08/20 00:56:28;;;;;;;11.68;8.57;;;15.00;99.90;;;;;;4930916;29;20036;-94
2021/08/20 00:58:55;;;;;;;10.10;8.15;;;14.90;99.90;;;;;;4931418;29;20032;-95
2021/08/20 01:01:21;;;;;;;12.07;7.85;;;14.90;99.90;;;;;;4930942;29;20040;-94
2021/08/20 01:03:46;;;;;;;8.52;6.75;;;14.90;99.90;;;;;;4930852;29;20032;-93
2021/08/20 01:06:13;;;;;;;9.55;6.65;;;14.80;99.90;;;;;;4931309;29;20043;-93
2021/08/20 01:08:39;;;;;;;9.20;7.30;;;14.80;99.90;;;;;;4930740;29;20088;-93
2021/08/20 01:11:08;;;;;;;9.18;6.93;;;14.80;99.90;;;;;;4930305;29;20382;-94
2021/08/20 01:13:36;;;;;;;14.05;8.32;;;14.70;99.90;;;;;;4930692;29;20036;-94
2021/08/20 01:16:04;;;;;;;11.88;7.25;;;14.70;99.90;;;;;;4915390;29;20087;-94
2021/08/20 01:18:31;;;;;;;8.07;5.95;;;14.70;99.90;;;;;;4931086;29;20024;-93
2021/08/20 01:21:15;;;;;;;9.27;7.47;;;14.70;99.90;;;;;;4930726;29;20035;-93
2021/08/20 01:23:50;;;;;;;11.38;7.20;;;14.70;99.90;;;;;;4930873;29;20056;-94
2021/08/20 01:26:15;;;;;;;11.32;7.38;;;14.70;99.90;;;;;;4915269;29;20063;-93
2021/08/20 01:28:42;;;;;;;9.45;6.68;;;14.60;99.90;;;;;;4929948;29;20039;-94
2021/08/20 01:31:12;;;;;;;7.53;6.22;;;14.60;99.90;;;;;;4926677;29;20047;-93
2021/08/20 01:33:38;;;;;;;8.07;6.25;;;14.70;99.90;;;;;;4911419;29;20028;-94
2021/08/20 01:36:05;;;;;;;9.73;6.38;;;14.70;99.90;;;;;;4911273;29;20032;-93
2021/08/20 01:38:33;;;;;;;8.23;5.97;;;14.60;99.90;;;;;;4911001;29;20028;-93
2021/08/20 01:40:59;;;;;;;8.55;6.53;;;14.60;99.90;;;;;;4910984;29;20036;-94
2021/08/20 01:43:25;;;;;;;11.23;6.05;;;14.60;99.90;;;;;;4911551;29;20039;-93
2021/08/20 01:45:51;;;;;;;10.32;5.90;;;14.50;99.90;;;;;;4910813;29;20036;-93
2021/08/20 01:48:18;;;;;;;8.52;6.22;;;14.50;99.90;;;;;;4959269;23;20502;-93
2021/08/20 01:50:44;;;;;;;8.18;5.53;;;14.50;99.90;;;;;;4971803;28;20039;-93
2021/08/20 01:53:12;;;;;;;8.40;5.88;;;14.50;99.90;;;;;;4971269;28;20037;-93
2021/08/20 01:55:39;;;;;;;7.93;5.53;;;14.50;99.90;;;;;;4955922;28;20151;-93
2021/08/20 01:58:05;;;;;;;7.82;6.13;;;14.60;99.90;;;;;;4987516;28;20224;-92
2021/08/20 02:00:31;;;;;;;9.23;6.07;;;14.50;99.90;;;;;;4955549;28;20105;-93
2021/08/20 02:02:57;;;;;;;9.77;6.57;;;14.50;99.90;;;;;;4955437;28;20038;-92
2021/08/20 02:05:24;;;;;;;7.40;6.30;;;14.50;99.90;;;;;;4970362;28;20102;-92
2021/08/20 02:07:50;;;;;;;9.75;6.20;;;14.50;99.90;;;;;;4955135;28;20031;-92
2021/08/20 02:10:19;;;;;;;10.68;6.30;;;14.50;99.90;;;;;;4955395;28;20047;-93
2021/08/20 02:12:45;;;;;;;9.45;6.82;;;14.40;99.90;;;;;;4955348;28;20027;-92
2021/08/20 02:15:12;;;;;;;7.57;6.25;;;14.40;99.90;;;;;;4955101;28;20125;-93
2021/08/20 02:17:38;;;;;;;9.75;6.25;;;14.40;99.90;;;;;;4955074;28;20027;-92
2021/08/20 02:20:05;;;;;;;9.45;7.43;;;14.30;99.90;;;;;;4970898;28;20517;-92
2021/08/20 02:22:31;;;;;;;10.48;6.93;;;14.30;99.90;;;;;;4970781;28;20487;-92
2021/08/20 02:24:57;;;;;;;10.25;7.63;;;14.30;99.90;;;;;;4971184;28;20045;-93
2021/08/20 02:27:23;;;;;;;10.82;7.38;;;14.20;99.90;;;;;;4971094;28;20037;-93
2021/08/20 02:29:55;;;;;;;11.93;7.72;;;14.10;99.90;;;;;;4970791;28;20031;-92
2021/08/20 02:32:22;;;;;;;11.00;7.47;;;14.10;99.90;;;;;;4986633;28;20031;-93
2021/08/20 02:34:47;;;;;;;13.40;8.63;;;14.00;99.90;;;;;;4986930;28;20046;-92
2021/08/20 02:37:14;;;;;;;11.93;8.00;;;14.00;99.90;;;;;;4986935;28;20058;-92
2021/08/20 02:39:41;;;;;;;12.48;8.55;;;14.00;99.90;;;;;;4970421;28;20027;-91
2021/08/20 02:42:06;;;;;;;10.07;8.65;;;14.00;99.90;;;;;;4970171;28;20042;-91
2021/08/20 02:44:32;;;;;;;12.57;8.55;;;14.00;99.90;;;;;;4986650;28;20031;-91
2021/08/20 02:46:58;;;;;;;13.23;8.95;;;14.00;99.90;;;;;;4970064;28;20041;-92
2021/08/20 02:49:24;;;;;;;10.48;7.72;;;14.10;99.90;;;;;;4986085;28;20047;-92
2021/08/20 02:51:50;;;;;;;11.05;8.43;;;14.10;99.90;;;;;;4969850;28;20031;-92
2021/08/20 02:54:19;;;;;;;14.60;8.90;;;14.20;99.90;;;;;;4970050;28;20082;-91
2021/08/20 02:56:45;;;;;;;13.52;9.65;;;14.20;99.90;;;;;;4986166;28;20027;-92
2021/08/20 02:59:12;;;;;;;14.07;8.65;;;14.20;99.90;;;;;;4969825;28;20386;-92
2021/08/20 03:01:37;;;;;;;11.48;9.27;;;14.30;99.90;;;;;;4986099;28;20058;-92
2021/08/20 03:04:10;;;;;;;13.00;9.50;;;14.30;99.90;;;;;;4985837;28;20038;-92
2021/08/20 03:06:35;;;;;;;13.90;10.05;;;14.30;99.90;;;;;;4985894;28;20031;-92
2021/08/20 03:09:06;;;;;;;13.65;9.65;;;14.30;99.90;;;;;;4969596;28;20022;-92
2021/08/20 03:11:36;;;;;;;11.73;10.05;;;14.30;99.90;;;;;;4969938;28;20077;-92
2021/08/20 03:14:02;;;;;;;12.93;9.30;;;14.40;99.90;;;;;;4969731;28;20042;-92
2021/08/20 03:16:31;;;;;;;12.40;9.40;;;14.40;99.90;;;;;;4986101;28;20027;-92
2021/08/20 03:19:03;;;;;;;12.52;9.00;;;14.40;99.90;;;;;;4941648;29;20095;-92
2021/08/20 03:21:30;;;;;;;13.88;10.18;;;14.40;99.90;;;;;;4941135;29;20035;-91
2021/08/20 03:23:56;;;;;;;13.35;10.07;;;14.50;99.90;;;;;;4957126;29;20019;-91
2021/08/20 03:26:23;;;;;;;18.17;12.25;;;14.40;99.90;;;;;;4973299;28;20027;-93
2021/08/20 03:28:58;;;;;;;13.77;10.45;;;14.50;99.90;;;;;;4957399;29;20023;-92
2021/08/20 03:31:24;;;;;;;17.67;11.20;;;14.50;99.90;;;;;;4973096;28;20050;-92
2021/08/20 03:33:54;;;;;;;16.83;11.32;;;14.50;99.90;;;;;;4972655;28;20106;-91
2021/08/20 03:36:22;;;;;;;13.95;10.43;;;14.50;99.90;;;;;;4956880;29;20043;-91
2021/08/20 03:38:51;;;;;;;15.85;10.82;;;14.50;99.90;;;;;;4972589;28;20027;-92
2021/08/20 03:41:21;;;;;;;14.90;10.73;;;14.50;99.90;;;;;;4940663;29;20046;-92
2021/08/20 03:43:59;;;;;;;15.18;10.55;;;14.50;99.90;;;;;;4942280;29;20054;-93
2021/08/20 03:46:26;;;;;;;15.07;11.02;;;14.50;99.90;;;;;;4972419;28;20503;-92
2021/08/20 03:48:52;;;;;;;16.40;10.82;;;14.60;99.90;;;;;;4972191;28;20130;-92
2021/08/20 03:51:18;;;;;;;17.00;9.85;;;14.60;99.90;;;;;;4972994;28;20035;-95
2021/08/20 03:53:44;;;;;;;17.52;12.13;;;14.70;99.90;;;;;;4956545;29;20449;-93
2021/08/20 03:56:10;;;;;;;21.75;14.48;;;14.80;99.90;;;;;;4972812;29;20090;-91
2021/08/20 03:58:41;;;;;;;20.88;12.68;;;14.80;99.90;;;;;;4972834;29;20305;-91
2021/08/20 04:01:13;;;;;;;20.63;13.85;;;14.80;99.90;;;;;;4971633;29;20184;-92
2021/08/20 04:03:41;;;;;;;27.63;17.17;;;14.80;99.90;;;;;;4956491;29;20027;-91
2021/08/20 04:06:18;;;;;;;29.85;15.68;;;14.90;99.90;;;;;;4956783;29;20031;-93
2021/08/20 04:08:44;;;;;;;25.10;14.60;;;14.90;99.90;;;;;;4972482;29;20090;-91
2021/08/20 04:11:27;;;;;;;22.95;13.65;;;14.90;99.90;;;;;;4970544;29;20046;-91
2021/08/20 04:14:04;;;;;;;22.90;12.15;;;14.90;99.90;;;;;;4971073;28;20051;-91
2021/08/20 04:16:30;;;;;;;22.75;13.00;;;14.90;99.90;;;;;;4973220;28;20038;-91
2021/08/20 04:18:57;;;;;;;24.27;14.77;;;14.90;99.90;;;;;;4940709;29;20094;-91
2021/08/20 04:21:23;;;;;;;26.52;15.45;;;14.90;99.90;;;;;;4940626;29;20063;-91
2021/08/20 04:23:48;;;;;;;22.42;14.20;;;14.90;99.90;;;;;;4956652;29;20031;-90
2021/08/20 04:26:15;;;;;;;20.52;12.90;;;14.90;99.90;;;;;;4940449;28;20027;-91
2021/08/20 04:28:59;;;;;;;24.40;13.15;;;14.90;99.90;;;;;;4970275;29;20070;-92
2021/08/20 04:31:39;;;;;;;25.08;13.68;;;15.00;99.90;;;;;;4977479;28;20042;-91
2021/08/20 04:34:18;;;;;;;23.57;13.23;;;15.00;99.90;;;;;;4977735;28;20089;-92
2021/08/20 04:36:58;;;;;;;19.77;12.60;;;15.00;99.90;;;;;;4977916;28;20038;-92
2021/08/20 04:39:42;;;;;;;23.40;14.32;;;15.00;99.90;;;;;;4994604;28;20064;-91
2021/08/20 04:42:20;;;;;;;21.48;12.98;;;15.00;99.90;;;;;;4977302;28;20026;-92
2021/08/20 04:45:14;;;;;;;22.05;14.07;;;15.00;99.90;;;;;;4979150;28;20034;-92
2021/08/20 04:47:57;;;;;;;21.13;13.57;;;15.00;99.90;;;;;;4977471;28;20316;-92
2021/08/20 04:50:43;;;;;;;22.05;13.38;;;15.00;99.90;;;;;;4978020;28;20125;-92
2021/08/20 04:53:19;;;;;;;23.05;14.50;;;15.00;99.90;;;;;;4976927;28;20050;-92
2021/08/20 04:56:11;;;;;;;22.45;14.52;;;15.00;99.90;;;;;;4994938;28;20039;-92
2021/08/20 04:58:37;;;;;;;22.33;14.68;;;15.00;99.90;;;;;;4975047;28;20050;-92
2021/08/20 05:01:03;;;;;;;24.25;15.00;;;15.00;99.90;;;;;;4974527;28;20053;-92
2021/08/20 05:03:31;;;;;;;24.33;15.63;;;15.10;99.90;;;;;;4974627;28;20034;-92
2021/08/20 05:05:56;;;;;;;22.38;14.60;;;15.10;99.90;;;;;;5006954;28;20098;-93
2021/08/20 05:08:22;;;;;;;20.40;14.27;;;15.10;99.90;;;;;;4974323;28;20037;-91
2021/08/20 05:10:48;;;;;;;22.05;14.68;;;15.10;99.90;;;;;;4974783;28;20509;-91
2021/08/20 05:13:14;;;;;;;21.15;14.30;;;15.10;99.90;;;;;;4975113;28;20038;-93
2021/08/20 05:15:39;;;;;;;20.95;15.30;;;15.10;99.90;;;;;;5006480;28;20034;-92
2021/08/20 05:18:05;;;;;;;22.20;14.10;;;15.10;99.90;;;;;;4973428;28;20037;-92
2021/08/20 05:20:31;;;;;;;20.45;14.13;;;15.10;99.90;;;;;;4954736;28;20101;-92
2021/08/20 05:22:56;;;;;;;19.95;14.38;;;15.10;99.90;;;;;;4971118;28;20035;-94
2021/08/20 05:25:24;;;;;;;22.75;15.25;;;15.20;99.90;;;;;;4954955;28;20038;-93
2021/08/20 05:27:50;;;;;;;21.70;15.48;;;15.20;99.90;;;;;;4970975;28;20188;-91
2021/08/20 05:30:17;;;;;;;21.13;14.65;;;15.20;99.90;;;;;;4970452;28;20046;-92
2021/08/20 05:32:43;;;;;;;18.88;13.68;;;15.30;99.90;;;;;;4986921;28;20035;-93
2021/08/20 05:35:11;;;;;;;19.00;14.25;;;15.30;99.90;;;;;;4970973;28;20038;-94
2021/08/20 05:37:38;;;;;;;19.67;13.50;;;15.30;99.90;;;;;;4970539;28;20047;-91
2021/08/20 05:40:05;;;;;;;19.83;13.02;;;15.30;99.90;;;;;;4986444;28;20115;-93
2021/08/20 05:42:30;;;;;;;22.45;16.00;;;15.40;99.90;;;;;;4970728;28;20035;-95
2021/08/20 05:44:56;;;;;;;21.63;14.40;;;15.40;99.90;;;;;;4954686;28;20098;-93
2021/08/20 05:47:23;;;;;;;22.45;14.70;;;15.40;99.90;;;;;;4963500;23;20089;-92
2021/08/20 05:49:49;;;;;;;22.38;15.15;;;15.40;99.90;;;;;;4970987;28;20035;-94
2021/08/20 05:52:16;;;;;;;22.80;15.30;;;15.40;99.90;;;;;;4954842;28;20106;-93
2021/08/20 05:54:41;;;;;;;20.73;14.38;;;15.50;99.90;;;;;;4970879;28;20027;-92
2021/08/20 05:57:07;;;;;;;22.23;14.02;;;15.50;99.90;;;;;;4954903;28;20035;-95
2021/08/20 05:59:33;;;;;;;21.85;14.93;;;15.50;99.90;;;;;;4970920;28;20043;-93
2021/08/20 06:02:00;;;;;;;21.80;14.77;;;15.50;99.90;;;;;;4954917;28;20053;-93
2021/08/20 06:04:26;;;;;;;19.92;14.07;;;15.50;99.90;;;;;;4970661;28;20035;-94
2021/08/20 06:06:52;;;;;;;22.92;15.60;;;15.60;99.90;;;;;;4970668;28;20099;-96
2021/08/20 06:09:20;;;;;;;25.80;17.02;;;15.60;99.90;;;;;;4954589;28;20046;-91
2021/08/20 06:11:45;;;;;;;24.00;15.77;;;15.60;99.90;;;;;;4954546;28;20038;-94
2021/08/20 06:14:11;;;;;;;19.50;13.73;;;15.60;99.90;;;;;;4970982;28;20094;-93
2021/08/20 06:16:36;;;;;;;23.00;15.18;;;15.60;99.90;;;;;;4950989;29;20027;-91
2021/08/20 06:19:02;;;;;;;20.83;14.52;;;15.70;99.90;;;;;;4951170;29;20093;-93
2021/08/20 06:21:28;;;;;;;21.83;14.18;;;15.70;99.90;;;;;;4966859;29;20059;-93
2021/08/20 06:23:53;;;;;;;20.25;13.05;;;15.80;99.90;;;;;;4951014;29;20035;-95
2021/08/20 06:26:19;;;;;;;23.15;14.70;;;15.80;99.90;;;;;;4951162;29;20037;-93
2021/08/20 06:28:45;;;;;;;18.25;12.02;;;15.80;99.90;;;;;;4966664;29;20053;-93
2021/08/20 06:31:10;;;;;;;18.15;12.60;;;15.90;99.90;;;;;;4963067;29;20035;-92
2021/08/20 06:33:39;;;;;;;17.88;11.23;;;16.00;99.90;;;;;;4966715;29;20035;-93
2021/08/20 06:36:05;;;;;;;17.27;11.82;;;16.10;99.90;;;;;;4966535;29;20047;-93
2021/08/20 06:38:31;;;;;;;17.02;11.38;;;16.10;99.90;;;;;;4967980;29;20039;-94
2021/08/20 06:40:57;;;;;;;19.77;12.88;;;16.10;99.90;;;;;;4966570;29;20039;-93
2021/08/20 06:43:23;;;;;;;16.77;10.38;;;16.10;99.90;;;;;;4966553;29;20043;-93
2021/08/20 06:46:09;;;;;;;19.58;12.05;;;16.20;99.90;;;;;;4950525;29;20067;-93
2021/08/20 06:48:34;;;;;;;14.75;10.07;;;16.20;99.90;;;;;;4926799;29;20056;-93
2021/08/20 06:51:00;;;;;;;18.15;12.13;;;16.30;99.90;;;;;;4910607;29;20052;-94
2021/08/20 06:53:27;;;;;;;18.90;12.13;;;16.20;99.90;;;;;;4895562;29;20139;-92
2021/08/20 06:55:53;;;;;;;16.27;11.02;;;16.10;99.90;;;;;;4895481;29;20035;-92
2021/08/20 06:58:19;;;;;;;17.08;11.25;;;16.20;99.90;;;;;;4895657;29;20020;-93
2021/08/20 07:00:44;;;;;;;17.23;11.50;;;16.20;99.90;;;;;;4895611;29;20044;-95
2021/08/20 07:03:10;;;;;;;19.08;10.88;;;16.30;99.90;;;;;;4911408;29;20054;-95
2021/08/20 07:05:36;;;;;;;15.25;9.90;;;16.50;99.90;;;;;;4895507;29;20055;-95
2021/08/20 07:08:05;;;;;;;16.15;9.93;;;16.70;99.90;;;;;;4926652;29;20035;-93
2021/08/20 07:10:30;;;;;;;13.82;9.10;;;16.70;99.90;;;;;;4926584;29;20051;-94
2021/08/20 07:12:56;;;;;;;14.30;9.63;;;16.60;99.90;;;;;;4926997;29;20052;-95
2021/08/20 07:15:21;;;;;;;17.08;10.65;;;16.80;99.90;;;;;;4926886;29;20032;-94
2021/08/20 07:17:47;;;;;;;15.02;9.65;;;16.90;99.90;;;;;;4909336;29;20028;-95
2021/08/20 07:20:13;;;;;;;13.48;9.07;;;17.10;99.90;;;;;;4930338;29;20043;-95
2021/08/20 07:22:38;;;;;;;14.23;9.88;;;17.20;99.90;;;;;;4946950;29;20035;-96
2021/08/20 07:25:04;;;;;;;15.02;10.80;;;17.30;99.90;;;;;;4920260;29;20477;-96
2021/08/20 07:27:30;;;;;;;16.88;10.15;;;17.40;99.90;;;;;;4967357;29;20038;-96
2021/08/20 07:29:56;;;;;;;16.17;9.88;;;17.50;99.90;;;;;;4956613;28;20046;-96
2021/08/20 07:32:21;;;;;;;13.93;9.75;;;17.70;99.90;;;;;;4953400;28;20070;-95
2021/08/20 07:34:47;;;;;;;15.27;10.35;;;17.70;99.90;;;;;;4969204;28;20169;-94
2021/08/20 07:37:13;;;;;;;15.35;10.18;;;17.50;99.90;;;;;;4952994;28;20037;-95
2021/08/20 07:39:38;;;;;;;14.35;10.32;;;17.50;99.90;;;;;;4953555;28;20063;-94
2021/08/20 07:42:05;;;;;;;15.80;9.25;;;17.60;99.90;;;;;;4969110;28;20035;-94
2021/08/20 07:44:31;;;;;;;12.90;8.60;;;17.70;99.90;;;;;;4953129;28;20080;-94
2021/08/20 07:46:57;;;;;;;10.80;8.45;;;17.70;99.90;;;;;;4969422;28;20043;-96
2021/08/20 07:49:23;;;;;;;12.77;8.80;;;17.60;99.90;;;;;;4969774;28;20035;-95
2021/08/20 07:51:49;;;;;;;14.07;9.10;;;17.60;99.90;;;;;;4969095;28;20054;-95
2021/08/20 07:54:14;;;;;;;12.25;8.02;;;17.60;99.90;;;;;;4969469;28;20042;-95
2021/08/20 07:56:40;;;;;;;11.52;7.85;;;17.70;99.90;;;;;;4969274;28;20035;-95
2021/08/20 07:59:06;;;;;;;11.73;8.75;;;17.80;99.90;;;;;;4968970;28;20123;-95
2021/08/20 08:01:32;;;;;;;12.02;8.32;;;17.80;99.90;;;;;;4953755;28;20121;-96
2021/08/20 08:03:58;;;;;;;16.05;11.63;;;17.70;99.90;;;;;;4972651;28;20475;-95
2021/08/20 08:06:24;;;;;;;13.05;10.13;;;17.70;99.90;;;;;;4989230;28;20050;-95
2021/08/20 08:08:50;;;;;;;14.32;10.73;;;17.70;99.90;;;;;;4972892;28;20130;-96
2021/08/20 08:11:16;;;;;;;15.70;12.18;;;17.70;99.90;;;;;;4956449;28;20053;-95
2021/08/20 08:13:42;;;;;;;15.20;12.25;;;17.90;99.90;;;;;;4956923;28;20171;-95
2021/08/20 08:16:08;;;;;;;15.73;12.20;;;17.90;99.90;;;;;;4972615;28;20073;-94
2021/08/20 08:18:34;;;;;;;17.50;13.55;;;17.90;99.90;;;;;;4956791;28;20030;-95
2021/08/20 08:21:00;;;;;;;16.73;12.93;;;17.90;99.90;;;;;;4956678;28;20034;-95
2021/08/20 08:23:25;;;;;;;15.95;10.52;;;17.90;99.90;;;;;;4972272;28;20038;-96
2021/08/20 08:25:51;;;;;;;12.65;9.88;;;18.10;99.90;;;;;;4972818;28;20023;-95
2021/08/20 08:28:19;;;;;;;10.40;8.73;;;18.10;99.90;;;;;;4972657;28;20030;-95
2021/08/20 08:30:48;;;;;;;15.90;13.02;;;18.20;99.90;;;;;;4956116;28;20510;-95
2021/08/20 08:33:15;;;;;;;11.43;9.88;;;18.10;99.90;;;;;;4956578;28;20031;-94
2021/08/20 08:35:40;;;;;;;12.40;11.10;;;18.30;99.90;;;;;;4972634;28;20541;-95
2021/08/20 08:38:11;;;;;;;15.40;11.80;;;18.60;99.90;;;;;;4972229;28;20034;-95
2021/08/20 08:40:39;;;;;;;13.90;12.32;;;18.90;99.90;;;;;;4972059;28;20039;-95
2021/08/20 08:43:06;;;;;;;12.25;9.55;;;18.60;99.90;;;;;;4988213;28;20039;-96
2021/08/20 08:45:32;;;;;;;9.82;8.82;;;19.40;99.90;;;;;;4971860;28;20035;-95
2021/08/20 08:48:02;;;;;;;10.75;8.48;;;19.80;99.90;;;;;;4955874;28;20082;-95
2021/08/20 08:50:28;;;;;;;10.27;8.38;;;20.00;99.90;;;;;;4955822;28;20053;-95
2021/08/20 08:52:54;;;;;;;8.05;6.13;;;20.30;99.90;;;;;;4971844;28;20031;-95
2021/08/20 08:55:19;;;;;;;10.20;9.02;;;20.80;99.90;;;;;;4956189;28;20030;-94
2021/08/20 08:57:45;;;;;;;11.55;9.55;;;20.50;99.90;;;;;;4971636;28;20034;-95
2021/08/20 09:00:11;;;;;;;8.38;6.35;;;20.20;99.90;;;;;;4971835;28;20038;-95
2021/08/20 09:02:37;;;;;;;6.25;5.35;;;20.80;99.90;;;;;;4987843;28;20185;-95
2021/08/20 09:05:10;;;;;;;6.03;4.45;;;20.60;99.90;;;;;;4972218;28;20039;-96
2021/08/20 09:07:38;;;;;;;7.30;6.05;;;21.10;99.90;;;;;;4955937;28;20059;-95
2021/08/20 09:10:14;;;;;;;6.68;6.03;;;20.70;99.90;;;;;;4971070;28;20125;-93
2021/08/20 09:12:50;;;;;;;6.88;6.15;;;20.40;99.90;;;;;;4955210;28;20118;-95
2021/08/20 09:15:17;;;;;;;8.70;7.18;;;20.00;99.90;;;;;;4971616;28;20042;-93
2021/08/20 09:17:55;;;;;;;7.65;6.40;;;19.80;99.90;;;;;;4954977;28;20026;-94
2021/08/20 09:20:24;;;;;;;10.40;7.75;;;19.70;99.90;;;;;;4971332;28;20043;-93
2021/08/20 09:22:52;;;;;;;9.10;6.40;;;19.50;99.90;;;;;;4970946;28;20054;-93
2021/08/20 09:25:40;;;;;;;10.25;7.07;;;19.50;99.90;;;;;;4971164;28;20039;-95
2021/08/20 09:28:20;;;;;;;7.60;5.80;;;19.40;99.90;;;;;;4955141;28;20070;-96
2021/08/20 09:30:56;;;;;;;8.85;6.38;;;19.30;99.90;;;;;;4970694;28;20059;-94
2021/08/20 09:33:24;;;;;;;8.10;5.05;;;19.30;99.90;;;;;;4955114;28;20475;-93
2021/08/20 09:36:02;;;;;;;5.70;4.30;;;19.40;99.90;;;;;;4954840;28;20026;-93
2021/08/20 09:38:29;;;;;;;7.07;4.15;;;19.60;99.90;;;;;;4954567;28;20034;-94
2021/08/20 09:41:01;;;;;;;6.13;4.18;;;19.70;99.90;;;;;;4954635;28;20027;-95
2021/08/20 09:43:36;;;;;;;5.38;3.95;;;19.80;99.90;;;;;;4954483;28;20034;-93
2021/08/20 09:46:23;;;;;;;3.97;3.08;;;20.00;99.90;;;;;;4954580;28;20031;-95
2021/08/20 09:48:53;;;;;;;4.18;2.15;;;20.00;99.90;;;;;;4893563;29;20057;-94
2021/08/20 09:51:30;;;;;;;4.55;3.58;;;20.10;99.90;;;;;;4893684;29;20059;-96
2021/08/20 09:54:04;;;;;;;3.42;2.40;;;20.00;99.90;;;;;;4909021;29;20045;-94
2021/08/20 09:56:30;;;;;;;4.90;2.55;;;20.00;99.90;;;;;;4909335;29;20544;-92
2021/08/20 09:58:59;;;;;;;4.05;2.88;;;19.80;99.90;;;;;;4893304;29;20047;-94
2021/08/20 10:01:29;;;;;;;7.28;5.15;;;20.20;99.90;;;;;;4893496;29;20045;-96
2021/08/20 10:03:58;;;;;;;;;;;20.50;99.90;;;;;;4894042;29;20148;-94
2021/08/20 10:06:26;;;;;;;8.05;5.30;;;21.40;99.90;;;;;;4909056;29;19932;-95
2021/08/20 10:08:53;;;;;;;7.85;5.68;;;20.70;99.90;;;;;;4877739;29;20085;-94
2021/08/20 10:11:19;;;;;;;6.85;5.22;;;20.30;99.90;;;;;;4893288;29;20044;-93
2021/08/20 10:13:45;;;;;;;6.78;5.57;;;20.00;99.90;;;;;;4877672;29;20528;-93
2021/08/20 10:16:14;;;;;;;5.55;4.50;;;19.60;99.90;;;;;;4893162;29;20041;-94
2021/08/20 10:18:41;;;;;;;8.75;5.18;;;19.60;99.90;;;;;;4877503;29;20051;-96
2021/08/20 10:21:11;;;;;;;8.00;5.97;;;19.60;99.90;;;;;;4893214;29;20028;-96
2021/08/20 10:23:36;;;;;;;7.47;5.10;;;19.50;99.90;;;;;;4893305;29;20048;-96
2021/08/20 10:26:06;;;;;;;7.45;4.80;;;19.60;99.90;;;;;;4920047;28;20039;-92
2021/08/20 10:28:32;;;;;;;11.23;7.22;;;20.20;99.90;;;;;;4954003;28;20026;-94
2021/08/20 10:30:58;;;;;;;9.60;6.97;;;20.40;99.90;;;;;;4953477;28;20067;-94
2021/08/20 10:33:32;;;;;;;11.13;6.82;;;20.90;99.90;;;;;;4969976;28;20027;-96
2021/08/20 10:35:58;;;;;;;6.70;4.30;;;21.00;99.90;;;;;;4970062;28;20376;-94
2021/08/20 10:38:30;;;;;;;8.32;7.10;;;21.30;99.90;;;;;;4969808;28;20034;-95
2021/08/20 10:41:15;;;;;;;7.18;5.03;;;21.30;99.90;;;;;;4953588;28;20042;-96
2021/08/20 10:44:01;;;;;;;6.68;4.80;;;21.40;99.90;;;;;;4969865;28;20035;-94
2021/08/20 10:49:42;;;;;;;5.35;3.63;;;20.40;99.90;;;;;;4986334;28;20058;-96
2021/08/20 10:52:22;;;;;;;7.07;4.30;;;20.70;99.90;;;;;;4970721;28;20113;-93
2021/08/20 10:54:49;;;;;;;5.18;3.38;;;20.50;99.90;;;;;;4986409;28;20050;-96
2021/08/20 10:57:38;;;;;;;6.65;3.70;;;20.90;99.90;;;;;;4970468;28;20054;-96
2021/08/20 11:00:22;;;;;;;8.27;5.20;;;21.30;99.90;;;;;;4970301;28;20046;-96
2021/08/20 11:02:50;;;;;;;9.73;5.50;;;21.40;99.90;;;;;;4986158;28;20042;-96
2021/08/20 11:05:16;;;;;;;7.40;5.22;;;21.20;99.90;;;;;;4985874;28;20031;-93
2021/08/20 11:07:42;;;;;;;5.55;4.47;;;21.50;99.90;;;;;;4986610;28;20058;-96
2021/08/20 11:10:08;;;;;;;4.05;3.38;;;22.30;99.90;;;;;;4986599;28;20137;-94
2021/08/20 11:12:48;;;;;;;4.68;2.85;;;22.70;99.90;;;;;;4986230;28;20348;-91
2021/08/20 11:15:17;;;;;;;4.00;3.33;;;22.20;99.90;;;;;;4985855;28;20146;-94
2021/08/20 11:18:02;;;;;;;4.95;3.60;;;22.00;99.90;;;;;;4967295;29;20032;-96
2021/08/20 11:20:49;;;;;;;5.28;3.00;;;21.70;99.90;;;;;;4949828;29;20498;-95
2021/08/20 11:23:17;;;;;;;4.80;3.13;;;21.20;99.90;;;;;;4950761;29;20035;-94
2021/08/20 11:25:49;;;;;;;2.90;1.63;;;21.80;99.90;;;;;;4951973;29;20027;-96
2021/08/20 11:28:23;;;;;;;2.35;1.00;;;22.60;99.90;;;;;;4969819;29;20047;-96
2021/08/20 11:31:00;;;;;;;2.08;0.90;;;23.00;99.90;;;;;;4950925;29;20046;-96
2021/08/20 11:33:33;;;;;;;1.77;0.98;;;23.50;99.90;;;;;;4967405;29;20039;-96
2021/08/20 11:36:04;;;;;;;3.08;1.25;;;23.70;99.90;;;;;;4968192;28;20524;-96
2021/08/20 11:38:38;;;;;;;3.03;1.40;;;23.90;99.90;;;;;;4973082;28;20031;-95
2021/08/20 11:41:19;;;;;;;2.95;1.77;;;23.80;99.90;;;;;;4972072;29;20031;-96
2021/08/20 11:43:47;;;;;;;4.57;3.03;;;23.80;99.90;;;;;;4955752;29;20502;-94
2021/08/20 11:50:08;;;;;;;6.00;4.25;;;23.50;99.90;;;;;;4939757;29;20095;-95
2021/08/20 11:52:34;;;;;;;3.53;2.33;;;22.30;99.90;;;;;;4950136;29;20036;-95
2021/08/20 11:54:59;;;;;;;3.92;2.92;;;22.50;99.90;;;;;;4935428;29;20043;-95
2021/08/20 11:57:37;;;;;;;4.30;2.40;;;22.60;99.90;;;;;;4933623;29;20564;-96
2021/08/20 12:00:03;;;;;;;2.47;1.50;;;22.90;99.90;;;;;;4936257;29;20095;-96
2021/08/20 12:02:31;;;;;;;5.85;2.83;;;23.60;99.90;;;;;;4949867;29;20091;-96
2021/08/20 12:05:15;;;;;;;5.05;3.08;;;23.10;99.90;;;;;;4950425;29;20035;-96
2021/08/20 12:07:40;;;;;;;7.30;4.95;;;22.40;99.90;;;;;;4933484;29;20068;-95
2021/08/20 12:10:08;;;;;;;5.97;4.40;;;22.30;99.90;;;;;;4949992;29;20039;-93
2021/08/20 12:12:36;;;;;;;5.45;3.15;;;22.60;99.90;;;;;;4950298;29;20040;-96
2021/08/20 12:15:02;;;;;;;7.28;5.18;;;23.00;99.90;;;;;;4933742;29;20436;-94
2021/08/20 12:17:32;;;;;;;6.45;4.90;;;22.30;99.90;;;;;;4949063;29;20126;-96
2021/08/20 12:19:59;;;;;;;3.75;2.72;;;22.30;99.90;;;;;;4933224;29;20130;-95
2021/08/20 12:22:36;;;;;;;4.55;3.38;;;22.60;99.90;;;;;;4949708;29;20036;-96
2021/08/20 12:25:15;;;;;;;4.85;3.20;;;22.40;99.90;;;;;;4934865;29;20078;-96
2021/08/20 12:27:42;;;;;;;7.72;5.00;;;23.10;99.90;;;;;;4969164;28;20042;-92
2021/08/20 12:30:10;;;;;;;6.57;5.18;;;23.10;99.90;;;;;;4973302;28;20047;-96
2021/08/20 12:32:42;;;;;;;3.97;3.30;;;23.10;99.90;;;;;;4986617;28;20058;-96
2021/08/20 12:35:18;;;;;;;4.47;3.00;;;23.30;99.90;;;;;;4986661;28;20484;-93
2021/08/20 12:38:10;;;;;;;4.30;3.90;;;24.10;99.90;;;;;;4985254;28;20122;-96
2021/08/20 12:40:45;;;;;;;3.20;2.50;;;24.30;99.90;;;;;;4986624;28;20039;-95
2021/08/20 12:43:35;;;;;;;5.40;3.90;;;24.20;99.90;;;;;;4987204;28;20042;-93
2021/08/20 12:46:32;;;;;;;5.82;4.82;;;23.40;99.90;;;;;;4987968;28;20019;-93
2021/08/20 12:49:01;;;;;;;5.00;4.28;;;23.80;99.90;;;;;;4928589;29;20060;-93
2021/08/20 12:51:27;;;;;;;4.80;3.58;;;24.30;99.90;;;;;;4929928;29;20048;-95